createdAt,value
2017-10-05T00:01:28.680Z,12.60
2017-10-05T00:03:59.174Z,12.60
2017-10-05T00:06:28.857Z,12.60
2017-10-05T00:08:58.646Z,12.60
2017-10-05T00:11:29.103Z,12.60
2017-10-05T00:13:58.807Z,12.60
2017-10-05T00:16:28.803Z,12.60
2017-10-05T00:18:58.485Z,12.60
2017-10-05T00:21:28.979Z,12.60
2017-10-05T00:23:59.631Z,12.50
2017-10-05T00:26:30.443Z,12.50
2017-10-05T00:29:00.363Z,12.50
2017-10-05T00:31:30.071Z,12.50
2017-10-05T00:33:59.908Z,12.50
2017-10-05T00:36:29.695Z,12.50
2017-10-05T00:38:59.503Z,12.50
2017-10-05T00:41:29.218Z,12.50
2017-10-05T00:43:58.529Z,12.50
2017-10-05T00:46:28.302Z,12.40
2017-10-05T00:48:58.738Z,12.40
2017-10-05T00:51:28.452Z,12.40
2017-10-05T00:53:58.418Z,12.40
2017-10-05T00:56:29.556Z,12.40
2017-10-05T00:58:58.664Z,12.40
2017-10-05T01:01:27.969Z,12.40
2017-10-05T01:03:58.142Z,12.40
2017-10-05T01:06:28.643Z,12.40
2017-10-05T01:08:58.691Z,12.40
2017-10-05T01:11:28.981Z,12.40
2017-10-05T01:13:58.694Z,12.30
2017-10-05T01:16:28.482Z,12.30
2017-10-05T01:18:58.220Z,12.40
2017-10-05T01:21:27.509Z,12.40
2017-10-05T01:23:56.493Z,12.40
2017-10-05T01:26:26.401Z,12.40
2017-10-05T01:28:56.243Z,12.40
2017-10-05T01:31:25.236Z,12.40
2017-10-05T01:33:55.344Z,12.30
2017-10-05T01:36:25.524Z,12.30
2017-10-05T01:38:56.203Z,12.30
2017-10-05T01:41:25.191Z,12.30
2017-10-05T01:43:55.637Z,12.30
2017-10-05T01:46:25.334Z,12.30
2017-10-05T01:48:54.882Z,12.30
2017-10-05T01:51:23.655Z,12.30
2017-10-05T01:53:53.132Z,12.30
2017-10-05T01:56:23.394Z,12.30
2017-10-05T01:58:53.055Z,12.30
2017-10-05T02:01:23.545Z,12.30
2017-10-05T02:03:53.054Z,12.30
2017-10-05T02:06:22.729Z,12.30
2017-10-05T02:08:52.453Z,12.40
2017-10-05T02:11:21.934Z,12.40
2017-10-05T02:13:51.627Z,12.40
2017-10-05T02:16:22.098Z,12.40
2017-10-05T02:18:51.557Z,12.40
2017-10-05T02:21:22.029Z,12.40
2017-10-05T02:23:51.698Z,12.40
2017-10-05T02:26:22.150Z,12.40
2017-10-05T02:28:51.865Z,12.40
2017-10-05T02:31:21.563Z,12.40
2017-10-05T02:33:51.263Z,12.40
2017-10-05T02:36:21.701Z,12.40
2017-10-05T02:38:51.402Z,12.40
2017-10-05T02:41:21.066Z,12.40
2017-10-05T02:43:50.826Z,12.40
2017-10-05T02:46:21.246Z,12.40
2017-10-05T02:48:51.389Z,12.40
2017-10-05T02:51:21.044Z,12.40
2017-10-05T02:53:50.767Z,12.50
2017-10-05T02:56:20.443Z,12.50
2017-10-05T02:58:50.163Z,12.50
2017-10-05T03:01:19.840Z,12.50
2017-10-05T03:03:49.543Z,12.50
2017-10-05T03:06:19.221Z,12.40
2017-10-05T03:08:49.383Z,12.50
2017-10-05T03:11:19.072Z,12.40
2017-10-05T03:13:48.612Z,12.40
2017-10-05T03:16:18.277Z,12.40
2017-10-05T03:18:48.753Z,12.20
2017-10-05T03:21:18.512Z,12.20
2017-10-05T03:23:48.967Z,12.00
2017-10-05T03:26:18.683Z,12.00
2017-10-05T03:28:48.372Z,12.00
2017-10-05T03:31:18.865Z,11.90
2017-10-05T03:33:48.532Z,11.90
2017-10-05T03:36:18.256Z,11.80
2017-10-05T03:38:47.974Z,11.70
2017-10-05T03:41:17.683Z,11.60
2017-10-05T03:43:47.405Z,11.50
2017-10-05T03:46:17.160Z,11.50
2017-10-05T03:48:47.618Z,11.40
2017-10-05T03:51:17.304Z,11.30
2017-10-05T03:53:46.833Z,11.30
2017-10-05T03:56:16.539Z,11.30
2017-10-05T03:58:46.029Z,11.20
2017-10-05T04:01:15.384Z,11.20
2017-10-05T04:03:44.947Z,11.20
2017-10-05T04:06:14.443Z,11.10
2017-10-05T04:08:44.198Z,11.10
2017-10-05T04:11:13.703Z,11.00
2017-10-05T04:13:43.427Z,11.00
2017-10-05T04:16:12.922Z,10.90
2017-10-05T04:18:42.660Z,10.90
2017-10-05T04:21:13.111Z,10.80
2017-10-05T04:23:43.068Z,10.80
2017-10-05T04:26:12.568Z,10.80
2017-10-05T04:28:42.294Z,10.70
2017-10-05T04:31:12.004Z,10.70
2017-10-05T04:33:41.394Z,10.60
2017-10-05T04:36:11.079Z,10.60
2017-10-05T04:38:40.804Z,10.60
2017-10-05T04:41:10.552Z,10.50
2017-10-05T04:43:40.243Z,10.50
2017-10-05T04:46:09.971Z,10.50
2017-10-05T04:48:40.447Z,10.40
2017-10-05T04:51:10.129Z,10.40
2017-10-05T04:53:40.618Z,10.40
2017-10-05T04:56:10.167Z,10.40
2017-10-05T04:58:40.291Z,10.40
2017-10-05T05:01:10.793Z,10.40
2017-10-05T05:03:40.351Z,10.30
2017-10-05T05:06:10.088Z,10.30
2017-10-05T05:08:39.820Z,10.30
2017-10-05T05:11:09.531Z,10.30
2017-10-05T05:13:39.250Z,10.30
2017-10-05T05:16:08.990Z,10.20
2017-10-05T05:18:38.725Z,10.20
2017-10-05T05:21:08.429Z,10.20
2017-10-05T05:23:38.167Z,10.20
2017-10-05T05:26:07.882Z,10.20
2017-10-05T05:28:37.601Z,10.20
2017-10-05T05:31:06.959Z,10.20
2017-10-05T05:33:36.919Z,10.20
2017-10-05T05:36:06.265Z,10.20
2017-10-05T05:38:36.001Z,10.20
2017-10-05T05:41:05.698Z,10.20
2017-10-05T05:43:35.404Z,10.20
2017-10-05T05:46:04.883Z,10.20
2017-10-05T05:48:35.006Z,10.20
2017-10-05T05:51:05.194Z,10.20
2017-10-05T05:53:35.160Z,10.20
2017-10-05T05:56:04.852Z,10.20
2017-10-05T05:58:35.336Z,10.20
2017-10-05T06:01:04.187Z,10.20
2017-10-05T06:03:33.867Z,10.20
2017-10-05T06:06:03.468Z,10.20
2017-10-05T06:08:32.460Z,10.20
2017-10-05T06:11:01.690Z,10.20
2017-10-05T06:13:31.167Z,10.20
2017-10-05T06:16:00.515Z,10.20
2017-10-05T06:18:29.867Z,10.20
2017-10-05T06:20:59.276Z,10.20
2017-10-05T06:23:28.269Z,10.30
2017-10-05T06:25:57.939Z,10.30
2017-10-05T06:28:27.311Z,10.20
2017-10-05T06:30:56.991Z,10.30
2017-10-05T06:33:26.726Z,10.30
2017-10-05T06:35:57.173Z,10.30
2017-10-05T06:38:27.042Z,10.30
2017-10-05T06:40:56.732Z,10.30
2017-10-05T06:43:26.437Z,10.30
2017-10-05T06:45:56.116Z,10.30
2017-10-05T06:48:25.838Z,10.30
2017-10-05T06:50:55.553Z,10.30
2017-10-05T06:53:25.259Z,10.40
2017-10-05T06:55:54.971Z,10.30
2017-10-05T06:58:24.649Z,10.30
2017-10-05T07:00:54.955Z,10.40
2017-10-05T07:03:24.625Z,10.30
2017-10-05T07:05:54.355Z,10.40
2017-10-05T07:08:24.025Z,10.40
2017-10-05T07:10:53.719Z,10.40
2017-10-05T07:13:23.437Z,10.40
2017-10-05T07:15:53.118Z,10.40
2017-10-05T07:18:23.620Z,10.50
2017-10-05T07:20:53.331Z,10.50
2017-10-05T07:23:23.025Z,10.50
2017-10-05T07:25:53.255Z,10.50
2017-10-05T07:28:22.958Z,10.50
2017-10-05T07:30:52.660Z,10.50
2017-10-05T07:33:22.386Z,10.50
2017-10-05T07:35:52.072Z,10.50
2017-10-05T07:38:21.602Z,10.50
2017-10-05T07:40:51.530Z,10.50
2017-10-05T07:43:21.997Z,10.50
2017-10-05T07:45:52.510Z,10.60
2017-10-05T07:48:23.143Z,10.60
2017-10-05T07:50:53.844Z,10.60
2017-10-05T07:53:23.531Z,10.50
2017-10-05T07:55:53.265Z,10.60
2017-10-05T07:58:22.974Z,10.60
2017-10-05T08:00:52.672Z,10.60
2017-10-05T08:03:21.962Z,10.60
2017-10-05T08:05:51.698Z,10.60
2017-10-05T08:08:21.390Z,10.60
2017-10-05T08:10:51.097Z,10.60
2017-10-05T08:13:20.610Z,10.60
2017-10-05T08:15:50.289Z,10.60
2017-10-05T08:18:19.985Z,10.60
2017-10-05T08:20:50.456Z,10.60
2017-10-05T08:23:20.210Z,10.60
2017-10-05T08:25:50.919Z,10.60
2017-10-05T08:28:20.592Z,10.60
2017-10-05T08:30:50.699Z,10.60
2017-10-05T08:33:21.138Z,10.60
2017-10-05T08:35:50.862Z,10.60
2017-10-05T08:38:20.547Z,10.70
2017-10-05T08:40:51.046Z,10.70
2017-10-05T08:43:21.160Z,10.70
2017-10-05T08:45:50.535Z,10.60
2017-10-05T08:48:20.252Z,10.70
2017-10-05T08:50:49.935Z,10.70
2017-10-05T08:53:19.655Z,10.70
2017-10-05T08:55:49.370Z,10.70
2017-10-05T08:58:19.066Z,10.70
2017-10-05T09:00:48.741Z,10.70
2017-10-05T09:03:18.303Z,10.70
2017-10-05T09:05:48.008Z,10.70
2017-10-05T09:08:17.709Z,10.70
2017-10-05T09:10:48.910Z,10.70
2017-10-05T09:13:18.909Z,10.70
2017-10-05T09:15:48.622Z,10.70
2017-10-05T09:18:18.300Z,10.70
2017-10-05T09:20:47.810Z,10.70
2017-10-05T09:23:17.519Z,10.80
2017-10-05T09:25:47.244Z,10.80
2017-10-05T09:28:16.923Z,10.70
2017-10-05T09:30:46.668Z,10.70
2017-10-05T09:33:16.354Z,10.80
2017-10-05T09:35:46.054Z,10.80
2017-10-05T09:38:16.345Z,10.80
2017-10-05T09:40:46.020Z,10.80
2017-10-05T09:43:15.763Z,10.80
2017-10-05T09:45:46.229Z,10.90
2017-10-05T09:48:16.860Z,10.90
2017-10-05T09:50:47.338Z,10.90
2017-10-05T09:53:16.866Z,10.90
2017-10-05T09:55:47.299Z,11.00
2017-10-05T09:58:17.603Z,11.00
2017-10-05T10:00:47.268Z,11.00
2017-10-05T10:03:16.990Z,11.00
2017-10-05T10:05:46.650Z,10.90
2017-10-05T10:08:16.399Z,11.00
2017-10-05T10:10:46.463Z,11.00
2017-10-05T10:13:16.930Z,11.00
2017-10-05T10:15:46.643Z,10.90
2017-10-05T10:18:16.300Z,10.90
2017-10-05T10:20:46.807Z,11.00
2017-10-05T10:23:17.973Z,11.00
2017-10-05T10:25:47.767Z,11.00
2017-10-05T10:28:18.245Z,11.00
2017-10-05T10:30:48.508Z,11.00
2017-10-05T10:33:18.172Z,11.00
2017-10-05T10:35:48.654Z,11.00
2017-10-05T10:38:18.317Z,11.00
2017-10-05T10:40:48.040Z,11.00
2017-10-05T10:43:17.550Z,11.00
2017-10-05T10:45:47.269Z,11.00
2017-10-05T10:48:16.966Z,11.00
2017-10-05T10:50:46.642Z,11.00
2017-10-05T10:53:16.363Z,11.00
2017-10-05T10:55:46.054Z,11.10
2017-10-05T10:58:15.750Z,11.00
2017-10-05T11:00:46.201Z,11.10
2017-10-05T11:03:15.942Z,11.10
2017-10-05T11:05:45.610Z,11.10
2017-10-05T11:08:15.315Z,11.10
2017-10-05T11:10:44.987Z,11.20
2017-10-05T11:13:14.708Z,11.20
2017-10-05T11:15:44.410Z,11.20
2017-10-05T11:18:14.083Z,11.20
2017-10-05T11:20:43.857Z,11.30
2017-10-05T11:23:14.293Z,11.30
2017-10-05T11:25:43.986Z,11.30
2017-10-05T11:28:14.410Z,11.30
2017-10-05T11:30:45.104Z,11.30
2017-10-05T11:33:14.767Z,11.30
2017-10-05T11:35:45.355Z,11.40
2017-10-05T11:38:15.013Z,11.30
2017-10-05T11:40:44.992Z,11.40
2017-10-05T11:43:14.666Z,11.40
2017-10-05T11:45:44.386Z,11.50
2017-10-05T11:48:14.087Z,11.50
2017-10-05T11:50:44.030Z,11.60
2017-10-05T11:53:13.493Z,11.60
2017-10-05T11:55:43.198Z,11.60
2017-10-05T11:58:12.867Z,11.70
2017-10-05T12:00:42.551Z,11.80
2017-10-05T12:03:12.043Z,11.90
2017-10-05T12:05:41.732Z,12.00
2017-10-05T12:08:11.398Z,12.00
2017-10-05T12:10:41.088Z,12.10
2017-10-05T12:13:10.821Z,12.40
2017-10-05T12:15:41.262Z,12.80
2017-10-05T12:18:11.728Z,12.90
2017-10-05T12:20:41.611Z,12.80
2017-10-05T12:23:12.071Z,13.20
2017-10-05T12:25:41.760Z,13.10
2017-10-05T12:28:12.231Z,13.20
2017-10-05T12:30:41.890Z,13.20
2017-10-05T12:33:12.713Z,13.20
2017-10-05T12:35:42.390Z,13.10
2017-10-05T12:38:12.142Z,13.20
2017-10-05T12:40:42.580Z,13.20
2017-10-05T12:43:13.070Z,13.20
2017-10-05T12:45:42.745Z,13.20
2017-10-05T12:48:12.455Z,13.20
2017-10-05T12:50:42.119Z,13.30
2017-10-05T12:53:12.593Z,13.40
2017-10-05T12:55:42.256Z,13.40
2017-10-05T12:58:12.258Z,13.30
2017-10-05T13:00:41.942Z,13.30
2017-10-05T13:03:11.859Z,13.30
2017-10-05T13:05:41.334Z,13.40
2017-10-05T13:08:11.038Z,13.30
2017-10-05T13:10:41.496Z,13.40
2017-10-05T13:13:11.161Z,13.40
2017-10-05T13:15:41.614Z,13.50
2017-10-05T13:18:11.293Z,13.50
2017-10-05T13:20:41.808Z,13.60
2017-10-05T13:23:11.271Z,13.60
2017-10-05T13:25:40.990Z,13.50
2017-10-05T13:28:10.654Z,13.50
2017-10-05T13:30:41.138Z,13.70
2017-10-05T13:33:10.859Z,13.70
2017-10-05T13:35:40.565Z,13.70
2017-10-05T13:38:10.286Z,13.70
2017-10-05T13:40:40.012Z,13.70
2017-10-05T13:43:09.695Z,13.80
2017-10-05T13:45:39.398Z,13.90
2017-10-05T13:48:09.130Z,13.90
2017-10-05T13:50:38.799Z,13.90
2017-10-05T13:53:08.512Z,13.90
2017-10-05T13:55:38.172Z,14.00
2017-10-05T13:58:07.932Z,14.10
2017-10-05T14:00:37.621Z,14.20
2017-10-05T14:03:07.107Z,14.30
2017-10-05T14:05:36.797Z,14.30
2017-10-05T14:08:06.506Z,14.30
2017-10-05T14:10:36.168Z,13.90
2017-10-05T14:13:05.858Z,13.40
2017-10-05T14:15:35.200Z,13.00
2017-10-05T14:18:05.676Z,12.40
2017-10-05T14:20:35.355Z,12.30
2017-10-05T14:23:05.067Z,12.00
2017-10-05T14:25:34.741Z,11.90
2017-10-05T14:28:05.195Z,11.90
2017-10-05T14:30:34.862Z,11.90
2017-10-05T14:33:05.314Z,12.00
2017-10-05T14:35:35.787Z,12.00
2017-10-05T14:38:05.495Z,11.90
2017-10-05T14:40:35.180Z,11.90
2017-10-05T14:43:05.663Z,11.80
2017-10-05T14:45:35.519Z,11.80
2017-10-05T14:48:05.189Z,11.80
2017-10-05T14:50:34.891Z,11.80
2017-10-05T14:53:04.566Z,11.80
2017-10-05T14:55:34.287Z,11.80
2017-10-05T14:58:03.949Z,11.70
2017-10-05T15:00:33.453Z,11.60
2017-10-05T15:03:03.215Z,11.50
2017-10-05T15:05:32.957Z,11.40
2017-10-05T15:08:02.426Z,11.30
2017-10-05T15:10:32.117Z,11.30
2017-10-05T15:13:01.892Z,11.10
2017-10-05T15:15:31.690Z,11.00
2017-10-05T15:18:01.390Z,11.00
2017-10-05T15:20:31.097Z,10.90
2017-10-05T15:23:00.842Z,10.90
2017-10-05T15:25:31.295Z,10.80
2017-10-05T15:28:01.850Z,10.80
2017-10-05T15:30:31.546Z,10.70
2017-10-05T15:33:01.410Z,10.70
2017-10-05T15:35:31.087Z,10.70
2017-10-05T15:38:01.533Z,10.50
2017-10-05T15:40:31.373Z,10.50
2017-10-05T15:43:01.126Z,10.40
2017-10-05T15:45:31.582Z,10.40
2017-10-05T15:48:01.251Z,10.40
2017-10-05T15:50:30.933Z,10.40
2017-10-05T15:53:00.615Z,10.30
2017-10-05T15:55:30.371Z,10.30
2017-10-05T15:58:00.059Z,10.20
2017-10-05T16:00:29.861Z,10.20
2017-10-05T16:03:00.475Z,10.20
2017-10-05T16:05:30.167Z,10.10
2017-10-05T16:08:00.662Z,10.10
2017-10-05T16:10:30.374Z,10.10
2017-10-05T16:13:06.706Z,10.10
2017-10-05T16:15:38.114Z,10.00
2017-10-05T16:18:08.701Z,9.90
2017-10-05T16:20:38.614Z,9.90
2017-10-05T16:23:08.311Z,9.90
2017-10-05T16:25:38.038Z,9.90
2017-10-05T16:28:07.688Z,9.90
2017-10-05T16:30:38.243Z,9.90
2017-10-05T16:33:07.889Z,9.90
2017-10-05T16:35:37.586Z,10.00
2017-10-05T16:38:07.253Z,10.00
2017-10-05T16:40:37.762Z,9.90
2017-10-05T16:43:07.530Z,9.90
2017-10-05T16:45:37.655Z,9.90
2017-10-05T16:48:07.569Z,10.00
2017-10-05T16:50:37.254Z,10.00
2017-10-05T16:53:06.984Z,10.00
2017-10-05T16:55:36.666Z,10.00
2017-10-05T16:58:06.354Z,10.10
2017-10-05T17:00:36.839Z,10.10
2017-10-05T17:03:06.502Z,10.10
2017-10-05T17:05:36.991Z,10.10
2017-10-05T17:08:06.654Z,10.10
2017-10-05T17:10:36.383Z,10.10
2017-10-05T17:13:06.054Z,10.10
2017-10-05T17:15:36.542Z,10.10
2017-10-05T17:18:06.202Z,10.10
2017-10-05T17:20:36.984Z,10.20
2017-10-05T17:23:06.658Z,10.10
2017-10-05T17:25:36.354Z,10.10
2017-10-05T17:28:06.781Z,10.10
2017-10-05T17:30:37.244Z,10.20
2017-10-05T17:33:06.907Z,10.10
2017-10-05T17:35:37.401Z,10.20
2017-10-05T17:38:07.084Z,10.10
2017-10-05T17:40:36.758Z,10.10
2017-10-05T17:43:07.462Z,10.00
2017-10-05T17:45:37.111Z,10.00
2017-10-05T17:48:07.792Z,10.00
2017-10-05T17:50:37.459Z,10.00
2017-10-05T17:53:07.727Z,10.00
2017-10-05T17:55:37.438Z,10.00
2017-10-05T17:58:07.098Z,10.00
2017-10-05T18:00:37.583Z,10.00
2017-10-05T18:03:07.248Z,10.00
2017-10-05T18:05:37.205Z,10.10
2017-10-05T18:08:07.630Z,10.00
2017-10-05T18:10:37.309Z,10.10
2017-10-05T18:13:07.046Z,10.10
2017-10-05T18:15:36.766Z,10.10
2017-10-05T18:18:06.478Z,10.00
2017-10-05T18:20:36.154Z,10.00
2017-10-05T18:23:05.830Z,10.00
2017-10-05T18:25:36.276Z,9.90
2017-10-05T18:28:05.969Z,9.90
2017-10-05T18:30:36.390Z,10.00
2017-10-05T18:33:07.074Z,10.00
2017-10-05T18:35:36.737Z,10.00
2017-10-05T18:38:06.696Z,10.00
2017-10-05T18:40:36.390Z,10.10
2017-10-05T18:43:05.899Z,10.10
2017-10-05T18:45:35.582Z,10.10
2017-10-05T18:48:06.074Z,10.10
2017-10-05T18:50:36.549Z,10.10
2017-10-05T18:53:06.270Z,10.10
2017-10-05T18:55:35.947Z,10.10
2017-10-05T18:58:06.406Z,10.10
2017-10-05T19:00:36.069Z,10.10
2017-10-05T19:03:05.954Z,10.10
2017-10-05T19:05:35.636Z,10.10
2017-10-05T19:08:06.106Z,10.10
2017-10-05T19:10:35.792Z,10.10
2017-10-05T19:13:05.911Z,10.00
2017-10-05T19:15:35.884Z,10.10
2017-10-05T19:18:05.749Z,10.10
2017-10-05T19:20:36.412Z,10.20
2017-10-05T19:23:06.344Z,10.20
2017-10-05T19:25:36.872Z,10.20
2017-10-05T19:28:06.959Z,10.30
2017-10-05T19:30:36.908Z,10.30
2017-10-05T19:33:07.111Z,10.30
2017-10-05T19:35:36.989Z,10.30
2017-10-05T19:38:07.432Z,10.30
2017-10-05T19:40:37.915Z,10.30
2017-10-05T19:43:07.575Z,10.20
2017-10-05T19:45:38.140Z,10.20
2017-10-05T19:48:07.801Z,10.20
2017-10-05T19:50:37.507Z,10.20
2017-10-05T19:53:07.177Z,10.20
2017-10-05T19:55:36.867Z,10.20
2017-10-05T19:58:06.548Z,10.30
2017-10-05T20:00:37.011Z,10.40
2017-10-05T20:03:06.534Z,10.40
2017-10-05T20:05:36.269Z,10.40
2017-10-05T20:08:06.713Z,10.40
2017-10-05T20:10:37.156Z,10.40
2017-10-05T20:13:07.675Z,10.50
2017-10-05T20:15:38.964Z,10.40
2017-10-05T20:18:19.178Z,10.50
2017-10-05T20:21:05.108Z,10.60
2017-10-05T20:26:37.070Z,10.60
2017-10-05T20:29:10.544Z,10.70
2017-10-05T20:31:42.534Z,10.70
2017-10-05T20:34:12.205Z,10.80
2017-10-05T20:36:41.935Z,10.80
2017-10-05T20:39:11.600Z,10.80
2017-10-05T20:41:42.058Z,10.80
2017-10-05T20:44:11.776Z,10.80
2017-10-05T20:46:41.447Z,10.80
2017-10-05T20:49:11.913Z,10.80
2017-10-05T20:51:41.585Z,10.80
2017-10-05T20:54:11.285Z,10.80
2017-10-05T20:56:40.959Z,10.80
2017-10-05T20:59:10.658Z,10.80
2017-10-05T21:01:40.342Z,10.80
2017-10-05T21:04:10.045Z,10.80
2017-10-05T21:06:40.294Z,10.70
2017-10-05T21:09:10.039Z,10.70
2017-10-05T21:11:39.721Z,10.70
2017-10-05T21:14:09.422Z,10.60
2017-10-05T21:16:39.104Z,10.60
2017-10-05T21:19:09.566Z,10.60
2017-10-05T21:21:39.384Z,10.60
2017-10-05T21:24:09.062Z,10.70
2017-10-05T21:26:39.675Z,10.60
2017-10-05T21:29:09.406Z,10.60
2017-10-05T21:31:39.107Z,10.60
2017-10-05T21:34:09.536Z,10.50
2017-10-05T21:36:39.538Z,10.50
2017-10-05T21:39:09.219Z,10.60
2017-10-05T21:41:38.914Z,10.60
2017-10-05T21:44:08.775Z,10.60
2017-10-05T21:46:38.472Z,10.60
2017-10-05T21:49:07.957Z,10.60
2017-10-05T21:51:37.426Z,10.60
2017-10-05T21:54:07.365Z,10.60
2017-10-05T21:56:37.061Z,10.60
2017-10-05T21:59:06.739Z,10.60
2017-10-05T22:01:36.463Z,10.60
2017-10-05T22:04:06.132Z,10.50
2017-10-05T22:06:35.846Z,10.50
2017-10-05T22:09:04.815Z,10.50
2017-10-05T22:11:34.598Z,10.50
2017-10-05T22:14:04.875Z,10.50
2017-10-05T22:16:34.555Z,10.50
2017-10-05T22:19:04.240Z,10.40
2017-10-05T22:21:33.907Z,10.50
2017-10-05T22:24:03.622Z,10.40
2017-10-05T22:26:33.291Z,10.40
2017-10-05T22:29:03.220Z,10.30
2017-10-05T22:31:32.882Z,10.30
2017-10-05T22:34:03.531Z,10.30
2017-10-05T22:36:33.197Z,10.30
2017-10-05T22:39:02.728Z,10.30
2017-10-05T22:41:33.158Z,10.20
2017-10-05T22:44:03.663Z,10.20
2017-10-05T22:46:33.338Z,10.20
2017-10-05T22:49:03.058Z,10.20
2017-10-05T22:51:32.723Z,10.20
2017-10-05T22:54:02.467Z,10.20
2017-10-05T22:56:32.935Z,10.20
2017-10-05T22:59:02.638Z,10.20
2017-10-05T23:01:32.109Z,10.20
2017-10-05T23:04:01.605Z,10.20
2017-10-05T23:06:32.223Z,10.20
2017-10-05T23:09:01.703Z,10.20
2017-10-05T23:11:31.162Z,10.30
2017-10-05T23:14:01.296Z,10.30
2017-10-05T23:16:30.762Z,10.20
2017-10-05T23:19:01.238Z,10.30
2017-10-05T23:21:31.225Z,10.30
2017-10-05T23:24:01.693Z,10.30
2017-10-05T23:26:31.376Z,10.30
2017-10-05T23:29:00.863Z,10.40
2017-10-05T23:31:31.307Z,10.40
2017-10-05T23:34:01.030Z,10.40
2017-10-05T23:36:30.698Z,10.40
2017-10-05T23:39:00.423Z,10.40
2017-10-05T23:41:31.297Z,10.40
2017-10-05T23:44:01.026Z,10.40
2017-10-05T23:46:31.095Z,10.50
2017-10-05T23:49:01.566Z,10.40
2017-10-05T23:51:31.238Z,10.40
2017-10-05T23:54:00.970Z,10.50
2017-10-05T23:56:30.639Z,10.50
2017-10-05T23:59:01.140Z,10.50
